sensor_id;sensor_type;location;lat;lon;timestamp;temperature;humidity
326;DHT22;150;52.352;14.058;2023-04-29T00:00:11;13.70;40.00
326;DHT22;150;52.352;14.058;2023-04-29T00:02:54;13.70;40.30
326;DHT22;150;52.352;14.058;2023-04-29T00:05:51;13.60;40.30
326;DHT22;150;52.352;14.058;2023-04-29T00:08:50;13.70;40.50
326;DHT22;150;52.352;14.058;2023-04-29T00:11:26;13.70;40.30
326;DHT22;150;52.352;14.058;2023-04-29T00:14:18;13.80;40.10
326;DHT22;150;52.352;14.058;2023-04-29T00:17:00;13.70;40.70
326;DHT22;150;52.352;14.058;2023-04-29T00:22:23;13.70;40.60
326;DHT22;150;52.352;14.058;2023-04-29T00:24:52;13.80;40.70
326;DHT22;150;52.352;14.058;2023-04-29T00:27:19;13.80;40.70
326;DHT22;150;52.352;14.058;2023-04-29T00:30:07;13.90;40.10
326;DHT22;150;52.352;14.058;2023-04-29T00:33:08;13.90;40.00
326;DHT22;150;52.352;14.058;2023-04-29T00:38:38;13.80;41.20
326;DHT22;150;52.352;14.058;2023-04-29T00:41:26;13.80;41.20
326;DHT22;150;52.352;14.058;2023-04-29T00:43:53;13.80;40.40
326;DHT22;150;52.352;14.058;2023-04-29T00:46:20;13.90;40.70
326;DHT22;150;52.352;14.058;2023-04-29T00:56:14;14.00;40.20
326;DHT22;150;52.352;14.058;2023-04-29T00:59:11;14.10;39.40
326;DHT22;150;52.352;14.058;2023-04-29T01:02:14;14.00;39.70
326;DHT22;150;52.352;14.058;2023-04-29T01:05:35;14.10;39.60
326;DHT22;150;52.352;14.058;2023-04-29T01:12:44;14.10;38.90
326;DHT22;150;52.352;14.058;2023-04-29T01:15:33;14.00;39.20
326;DHT22;150;52.352;14.058;2023-04-29T01:18:35;14.00;39.40
326;DHT22;150;52.352;14.058;2023-04-29T01:21:11;13.90;39.70
326;DHT22;150;52.352;14.058;2023-04-29T01:23:51;13.80;39.90
326;DHT22;150;52.352;14.058;2023-04-29T01:30:16;13.80;40.80
326;DHT22;150;52.352;14.058;2023-04-29T01:34:04;13.80;40.50
326;DHT22;150;52.352;14.058;2023-04-29T01:37:15;13.80;40.40
326;DHT22;150;52.352;14.058;2023-04-29T01:43:04;13.90;40.10
326;DHT22;150;52.352;14.058;2023-04-29T01:46:15;13.90;39.90
326;DHT22;150;52.352;14.058;2023-04-29T01:49:52;13.90;39.70
326;DHT22;150;52.352;14.058;2023-04-29T01:55:07;14.00;39.50
326;DHT22;150;52.352;14.058;2023-04-29T01:55:48;14.00;39.70
326;DHT22;150;52.352;14.058;2023-04-29T01:58:27;14.00;39.20
326;DHT22;150;52.352;14.058;2023-04-29T02:00:56;14.10;39.20
326;DHT22;150;52.352;14.058;2023-04-29T02:06:48;14.20;39.30
326;DHT22;150;52.352;14.058;2023-04-29T02:09:15;14.20;38.90
326;DHT22;150;52.352;14.058;2023-04-29T02:11:53;14.30;38.50
326;DHT22;150;52.352;14.058;2023-04-29T02:15:00;14.10;38.70
326;DHT22;150;52.352;14.058;2023-04-29T02:17:44;14.10;39.30
326;DHT22;150;52.352;14.058;2023-04-29T02:20:22;14.00;39.50
326;DHT22;150;52.352;14.058;2023-04-29T02:22:50;13.90;40.40
326;DHT22;150;52.352;14.058;2023-04-29T02:25:59;13.80;42.30
326;DHT22;150;52.352;14.058;2023-04-29T02:29:04;13.80;42.40
326;DHT22;150;52.352;14.058;2023-04-29T02:32:02;13.80;42.60
326;DHT22;150;52.352;14.058;2023-04-29T02:35:11;13.90;43.00
326;DHT22;150;52.352;14.058;2023-04-29T02:38:06;13.90;43.10
326;DHT22;150;52.352;14.058;2023-04-29T02:56:20;13.90;44.10
326;DHT22;150;52.352;14.058;2023-04-29T02:59:01;13.90;44.40
326;DHT22;150;52.352;14.058;2023-04-29T03:02:04;13.90;44.50
326;DHT22;150;52.352;14.058;2023-04-29T03:05:57;13.90;44.60
326;DHT22;150;52.352;14.058;2023-04-29T03:09:10;13.80;44.80
326;DHT22;150;52.352;14.058;2023-04-29T03:19:23;13.70;46.30
326;DHT22;150;52.352;14.058;2023-04-29T03:26:27;13.60;46.50
326;DHT22;150;52.352;14.058;2023-04-29T03:33:00;13.70;47.40
326;DHT22;150;52.352;14.058;2023-04-29T03:43:54;13.70;46.30
326;DHT22;150;52.352;14.058;2023-04-29T03:47:04;13.70;46.50
326;DHT22;150;52.352;14.058;2023-04-29T04:04:04;13.60;47.40
326;DHT22;150;52.352;14.058;2023-04-29T04:10:21;13.70;47.70
326;DHT22;150;52.352;14.058;2023-04-29T04:17:18;13.70;47.00
326;DHT22;150;52.352;14.058;2023-04-29T04:20:25;13.70;47.60
326;DHT22;150;52.352;14.058;2023-04-29T04:23:05;13.70;47.20
326;DHT22;150;52.352;14.058;2023-04-29T04:26:23;13.70;47.60
326;DHT22;150;52.352;14.058;2023-04-29T04:30:01;13.70;48.30
326;DHT22;150;52.352;14.058;2023-04-29T04:37:28;13.60;49.90
326;DHT22;150;52.352;14.058;2023-04-29T04:43:02;13.60;50.70
326;DHT22;150;52.352;14.058;2023-04-29T04:47:24;13.70;51.10
326;DHT22;150;52.352;14.058;2023-04-29T05:01:32;14.00;51.60
326;DHT22;150;52.352;14.058;2023-04-29T05:04:35;14.10;51.20
326;DHT22;150;52.352;14.058;2023-04-29T05:07:58;14.30;51.30
326;DHT22;150;52.352;14.058;2023-04-29T05:38:28;13.90;52.80
326;DHT22;150;52.352;14.058;2023-04-29T05:50:02;14.00;54.30
326;DHT22;150;52.352;14.058;2023-04-29T06:00:30;14.10;54.70
326;DHT22;150;52.352;14.058;2023-04-29T06:12:03;14.40;53.80
326;DHT22;150;52.352;14.058;2023-04-29T06:14:02;14.40;53.90
326;DHT22;150;52.352;14.058;2023-04-29T06:16:34;14.40;53.20
326;DHT22;150;52.352;14.058;2023-04-29T06:19:09;14.50;53.20
326;DHT22;150;52.352;14.058;2023-04-29T06:21:45;14.50;53.50
326;DHT22;150;52.352;14.058;2023-04-29T06:24:17;14.40;53.80
326;DHT22;150;52.352;14.058;2023-04-29T06:26:53;14.40;53.90
326;DHT22;150;52.352;14.058;2023-04-29T06:29:24;14.30;54.30
326;DHT22;150;52.352;14.058;2023-04-29T06:31:57;14.30;54.90
326;DHT22;150;52.352;14.058;2023-04-29T06:34:29;14.40;55.40
326;DHT22;150;52.352;14.058;2023-04-29T06:41:12;14.40;55.40
326;DHT22;150;52.352;14.058;2023-04-29T06:43:45;14.50;56.40
326;DHT22;150;52.352;14.058;2023-04-29T06:46:34;14.40;55.60
326;DHT22;150;52.352;14.058;2023-04-29T06:49:16;14.50;55.50
326;DHT22;150;52.352;14.058;2023-04-29T06:51:50;14.50;56.20
326;DHT22;150;52.352;14.058;2023-04-29T06:54:45;14.50;56.10
326;DHT22;150;52.352;14.058;2023-04-29T06:57:43;14.60;55.20
326;DHT22;150;52.352;14.058;2023-04-29T07:00:44;14.50;54.90
326;DHT22;150;52.352;14.058;2023-04-29T07:03:35;14.50;55.90
326;DHT22;150;52.352;14.058;2023-04-29T07:06:05;14.60;56.00
326;DHT22;150;52.352;14.058;2023-04-29T07:09:03;14.60;56.80
326;DHT22;150;52.352;14.058;2023-04-29T07:12:10;14.80;56.10
326;DHT22;150;52.352;14.058;2023-04-29T07:14:50;14.80;55.70
326;DHT22;150;52.352;14.058;2023-04-29T07:17:36;14.80;55.50
326;DHT22;150;52.352;14.058;2023-04-29T07:20:24;14.90;54.90
326;DHT22;150;52.352;14.058;2023-04-29T07:23:00;15.00;55.10
326;DHT22;150;52.352;14.058;2023-04-29T07:25:35;15.00;55.10
326;DHT22;150;52.352;14.058;2023-04-29T07:28:27;15.10;54.40
326;DHT22;150;52.352;14.058;2023-04-29T07:31:14;15.10;54.20
326;DHT22;150;52.352;14.058;2023-04-29T07:33:47;15.20;54.10
326;DHT22;150;52.352;14.058;2023-04-29T07:36:30;15.10;53.70
326;DHT22;150;52.352;14.058;2023-04-29T07:39:22;15.10;53.20
326;DHT22;150;52.352;14.058;2023-04-29T07:41:57;15.10;54.10
326;DHT22;150;52.352;14.058;2023-04-29T07:44:37;15.10;54.30
326;DHT22;150;52.352;14.058;2023-04-29T07:47:25;15.20;53.80
326;DHT22;150;52.352;14.058;2023-04-29T07:49:59;15.10;53.60
326;DHT22;150;52.352;14.058;2023-04-29T07:52:36;15.00;54.00
326;DHT22;150;52.352;14.058;2023-04-29T07:55:20;15.20;55.00
326;DHT22;150;52.352;14.058;2023-04-29T07:58:15;15.20;54.70
326;DHT22;150;52.352;14.058;2023-04-29T08:01:19;15.40;54.10
326;DHT22;150;52.352;14.058;2023-04-29T08:04:12;15.50;53.70
326;DHT22;150;52.352;14.058;2023-04-29T08:10:36;15.70;53.00
326;DHT22;150;52.352;14.058;2023-04-29T08:16:37;15.70;52.50
326;DHT22;150;52.352;14.058;2023-04-29T08:19:55;15.70;52.40
326;DHT22;150;52.352;14.058;2023-04-29T08:22:49;15.60;52.00
326;DHT22;150;52.352;14.058;2023-04-29T08:29:05;15.60;52.00
326;DHT22;150;52.352;14.058;2023-04-29T08:31:55;15.60;51.80
326;DHT22;150;52.352;14.058;2023-04-29T08:35:18;15.60;51.80
326;DHT22;150;52.352;14.058;2023-04-29T08:38:39;15.70;52.50
326;DHT22;150;52.352;14.058;2023-04-29T08:42:08;15.50;51.80
326;DHT22;150;52.352;14.058;2023-04-29T08:44:53;15.60;52.70
326;DHT22;150;52.352;14.058;2023-04-29T08:47:53;15.70;52.90
326;DHT22;150;52.352;14.058;2023-04-29T08:50:46;15.60;52.30
326;DHT22;150;52.352;14.058;2023-04-29T08:53:48;15.60;52.50
326;DHT22;150;52.352;14.058;2023-04-29T09:00:37;15.70;52.70
326;DHT22;150;52.352;14.058;2023-04-29T09:03:26;15.70;52.40
326;DHT22;150;52.352;14.058;2023-04-29T09:06:25;15.70;52.00
326;DHT22;150;52.352;14.058;2023-04-29T09:09:29;15.70;52.50
326;DHT22;150;52.352;14.058;2023-04-29T09:12:08;15.80;52.70
326;DHT22;150;52.352;14.058;2023-04-29T09:14:35;15.70;51.40
326;DHT22;150;52.352;14.058;2023-04-29T09:17:13;15.70;51.40
326;DHT22;150;52.352;14.058;2023-04-29T09:19:49;15.60;51.60
326;DHT22;150;52.352;14.058;2023-04-29T09:22:33;15.70;52.50
326;DHT22;150;52.352;14.058;2023-04-29T09:25:16;15.80;51.80
326;DHT22;150;52.352;14.058;2023-04-29T09:27:55;15.80;51.80
326;DHT22;150;52.352;14.058;2023-04-29T09:30:34;15.70;51.60
326;DHT22;150;52.352;14.058;2023-04-29T09:33:57;15.60;52.00
326;DHT22;150;52.352;14.058;2023-04-29T09:36:58;15.60;51.60
326;DHT22;150;52.352;14.058;2023-04-29T09:39:39;15.50;52.70
326;DHT22;150;52.352;14.058;2023-04-29T09:42:28;15.50;51.80
326;DHT22;150;52.352;14.058;2023-04-29T09:45:40;15.50;51.30
326;DHT22;150;52.352;14.058;2023-04-29T09:48:13;15.40;51.20
326;DHT22;150;52.352;14.058;2023-04-29T09:51:09;15.40;51.10
326;DHT22;150;52.352;14.058;2023-04-29T10:01:33;14.80;52.00
326;DHT22;150;52.352;14.058;2023-04-29T10:04:31;14.60;52.30
326;DHT22;150;52.352;14.058;2023-04-29T10:10:44;14.40;53.90
326;DHT22;150;52.352;14.058;2023-04-29T10:17:15;14.30;54.50
326;DHT22;150;52.352;14.058;2023-04-29T10:20:21;14.30;54.00
326;DHT22;150;52.352;14.058;2023-04-29T10:23:18;14.30;53.90
326;DHT22;150;52.352;14.058;2023-04-29T10:34:01;14.40;53.80
326;DHT22;150;52.352;14.058;2023-04-29T10:36:56;14.30;54.00
326;DHT22;150;52.352;14.058;2023-04-29T10:44:03;14.50;52.70
326;DHT22;150;52.352;14.058;2023-04-29T10:53:04;14.50;51.80
326;DHT22;150;52.352;14.058;2023-04-29T10:56:04;14.60;52.00
326;DHT22;150;52.352;14.058;2023-04-29T11:07:39;14.30;51.70
326;DHT22;150;52.352;14.058;2023-04-29T11:27:16;14.50;51.70
326;DHT22;150;52.352;14.058;2023-04-29T11:30:26;14.30;50.40
326;DHT22;150;52.352;14.058;2023-04-29T11:33:27;14.30;51.60
326;DHT22;150;52.352;14.058;2023-04-29T11:36:25;14.30;51.30
326;DHT22;150;52.352;14.058;2023-04-29T11:39:36;14.10;51.00
326;DHT22;150;52.352;14.058;2023-04-29T12:08:01;14.40;49.50
326;DHT22;150;52.352;14.058;2023-04-29T12:10:46;14.40;49.50
326;DHT22;150;52.352;14.058;2023-04-29T12:18:16;14.80;47.40
326;DHT22;150;52.352;14.058;2023-04-29T12:20:47;15.20;47.70
326;DHT22;150;52.352;14.058;2023-04-29T12:23:51;15.50;45.80
326;DHT22;150;52.352;14.058;2023-04-29T12:26:30;15.80;46.00
326;DHT22;150;52.352;14.058;2023-04-29T12:29:37;16.00;44.20
326;DHT22;150;52.352;14.058;2023-04-29T12:36:15;16.60;40.30
326;DHT22;150;52.352;14.058;2023-04-29T12:39:23;16.70;40.00
326;DHT22;150;52.352;14.058;2023-04-29T12:42:45;16.80;40.10
326;DHT22;150;52.352;14.058;2023-04-29T12:46:20;16.80;39.80
326;DHT22;150;52.352;14.058;2023-04-29T13:16:13;17.60;33.70
326;DHT22;150;52.352;14.058;2023-04-29T13:18:55;17.30;34.70
326;DHT22;150;52.352;14.058;2023-04-29T13:21:32;17.10;35.50
326;DHT22;150;52.352;14.058;2023-04-29T13:24:08;16.90;35.70
326;DHT22;150;52.352;14.058;2023-04-29T13:26:45;16.60;37.30
326;DHT22;150;52.352;14.058;2023-04-29T13:29:14;16.40;38.10
326;DHT22;150;52.352;14.058;2023-04-29T13:32:20;16.30;38.10
326;DHT22;150;52.352;14.058;2023-04-29T13:35:17;16.00;37.80
326;DHT22;150;52.352;14.058;2023-04-29T13:38:13;15.80;38.60
326;DHT22;150;52.352;14.058;2023-04-29T13:41:21;15.70;38.50
326;DHT22;150;52.352;14.058;2023-04-29T13:43:59;15.50;38.90
326;DHT22;150;52.352;14.058;2023-04-29T13:46:50;15.40;39.30
326;DHT22;150;52.352;14.058;2023-04-29T13:49:33;15.30;39.20
326;DHT22;150;52.352;14.058;2023-04-29T13:52:18;15.20;39.60
326;DHT22;150;52.352;14.058;2023-04-29T13:55:25;15.30;40.00
326;DHT22;150;52.352;14.058;2023-04-29T13:58:07;15.50;40.50
326;DHT22;150;52.352;14.058;2023-04-29T14:07:32;15.90;39.00
326;DHT22;150;52.352;14.058;2023-04-29T14:10:20;16.10;37.80
326;DHT22;150;52.352;14.058;2023-04-29T14:13:04;16.20;37.60
326;DHT22;150;52.352;14.058;2023-04-29T14:15:55;16.40;38.10
326;DHT22;150;52.352;14.058;2023-04-29T14:18:36;16.60;36.60
326;DHT22;150;52.352;14.058;2023-04-29T14:21:41;16.60;34.90
326;DHT22;150;52.352;14.058;2023-04-29T14:24:36;16.50;35.70
326;DHT22;150;52.352;14.058;2023-04-29T14:27:10;16.80;35.80
326;DHT22;150;52.352;14.058;2023-04-29T14:29:46;16.90;34.00
326;DHT22;150;52.352;14.058;2023-04-29T14:32:18;16.90;33.90
326;DHT22;150;52.352;14.058;2023-04-29T14:34:58;17.00;33.80
326;DHT22;150;52.352;14.058;2023-04-29T14:37:43;17.10;33.40
326;DHT22;150;52.352;14.058;2023-04-29T14:40:54;17.20;33.40
326;DHT22;150;52.352;14.058;2023-04-29T14:49:56;16.70;33.80
326;DHT22;150;52.352;14.058;2023-04-29T14:52:54;16.50;33.90
326;DHT22;150;52.352;14.058;2023-04-29T15:06:48;16.50;33.80
326;DHT22;150;52.352;14.058;2023-04-29T15:09:20;16.70;34.00
326;DHT22;150;52.352;14.058;2023-04-29T15:12:15;16.60;31.30
326;DHT22;150;52.352;14.058;2023-04-29T15:14:52;16.50;31.00
326;DHT22;150;52.352;14.058;2023-04-29T15:18:20;16.50;30.40
326;DHT22;150;52.352;14.058;2023-04-29T15:24:59;16.30;30.70
326;DHT22;150;52.352;14.058;2023-04-29T15:27:59;16.40;31.80
326;DHT22;150;52.352;14.058;2023-04-29T15:30:57;16.30;29.90
326;DHT22;150;52.352;14.058;2023-04-29T15:34:37;16.30;29.40
326;DHT22;150;52.352;14.058;2023-04-29T15:37:26;16.40;29.00
326;DHT22;150;52.352;14.058;2023-04-29T15:40:22;16.40;29.30
326;DHT22;150;52.352;14.058;2023-04-29T15:49:57;16.30;28.60
326;DHT22;150;52.352;14.058;2023-04-29T15:53:04;16.40;29.40
326;DHT22;150;52.352;14.058;2023-04-29T15:56:29;16.50;29.00
326;DHT22;150;52.352;14.058;2023-04-29T16:02:37;16.40;28.90
326;DHT22;150;52.352;14.058;2023-04-29T16:05:33;16.50;28.70
326;DHT22;150;52.352;14.058;2023-04-29T16:17:33;16.30;28.70
326;DHT22;150;52.352;14.058;2023-04-29T16:20:54;16.30;29.00
326;DHT22;150;52.352;14.058;2023-04-29T16:27:31;16.50;28.50
326;DHT22;150;52.352;14.058;2023-04-29T16:30:57;16.60;28.00
326;DHT22;150;52.352;14.058;2023-04-29T16:36:31;16.60;28.00
326;DHT22;150;52.352;14.058;2023-04-29T16:42:20;16.60;28.00
326;DHT22;150;52.352;14.058;2023-04-29T16:44:54;16.50;27.90
326;DHT22;150;52.352;14.058;2023-04-29T16:47:41;16.40;27.90
326;DHT22;150;52.352;14.058;2023-04-29T16:50:41;16.30;27.80
326;DHT22;150;52.352;14.058;2023-04-29T16:53:36;16.30;27.80
326;DHT22;150;52.352;14.058;2023-04-29T16:56:18;16.20;27.80
326;DHT22;150;52.352;14.058;2023-04-29T16:59:11;15.90;27.50
326;DHT22;150;52.352;14.058;2023-04-29T17:02:28;15.90;27.50
326;DHT22;150;52.352;14.058;2023-04-29T17:05:43;15.90;27.10
326;DHT22;150;52.352;14.058;2023-04-29T17:08:55;15.90;27.50
326;DHT22;150;52.352;14.058;2023-04-29T17:12:43;15.80;26.90
326;DHT22;150;52.352;14.058;2023-04-29T17:15:36;15.80;27.50
326;DHT22;150;52.352;14.058;2023-04-29T17:18:21;15.70;27.30
326;DHT22;150;52.352;14.058;2023-04-29T17:21:19;15.80;27.50
326;DHT22;150;52.352;14.058;2023-04-29T17:24:37;15.90;27.60
326;DHT22;150;52.352;14.058;2023-04-29T17:27:21;15.90;27.50
326;DHT22;150;52.352;14.058;2023-04-29T17:30:40;16.00;27.60
326;DHT22;150;52.352;14.058;2023-04-29T17:33:46;16.10;27.70
326;DHT22;150;52.352;14.058;2023-04-29T17:37:06;16.20;27.50
326;DHT22;150;52.352;14.058;2023-04-29T17:47:13;16.40;27.90
326;DHT22;150;52.352;14.058;2023-04-29T17:50:06;16.40;27.90
326;DHT22;150;52.352;14.058;2023-04-29T18:03:08;16.50;27.90
326;DHT22;150;52.352;14.058;2023-04-29T18:05:51;16.50;27.90
326;DHT22;150;52.352;14.058;2023-04-29T18:09:06;16.50;27.90
326;DHT22;150;52.352;14.058;2023-04-29T18:14:36;16.40;27.90
326;DHT22;150;52.352;14.058;2023-04-29T18:17:25;16.40;27.90
326;DHT22;150;52.352;14.058;2023-04-29T18:20:13;16.40;28.10
326;DHT22;150;52.352;14.058;2023-04-29T18:26:04;16.30;28.40
326;DHT22;150;52.352;14.058;2023-04-29T18:28:35;16.20;28.50
326;DHT22;150;52.352;14.058;2023-04-29T18:31:15;16.10;28.70
326;DHT22;150;52.352;14.058;2023-04-29T18:34:39;16.10;29.00
326;DHT22;150;52.352;14.058;2023-04-29T18:36:58;16.00;29.20
326;DHT22;150;52.352;14.058;2023-04-29T18:40:23;15.90;29.70
326;DHT22;150;52.352;14.058;2023-04-29T18:43:23;15.80;29.90
326;DHT22;150;52.352;14.058;2023-04-29T18:46:16;15.60;30.00
326;DHT22;150;52.352;14.058;2023-04-29T18:49:07;15.50;30.20
326;DHT22;150;52.352;14.058;2023-04-29T18:52:26;15.40;30.80
326;DHT22;150;52.352;14.058;2023-04-29T18:55:41;15.30;31.50
326;DHT22;150;52.352;14.058;2023-04-29T18:58:50;15.20;31.60
326;DHT22;150;52.352;14.058;2023-04-29T19:24:38;14.60;34.50
326;DHT22;150;52.352;14.058;2023-04-29T19:27:55;14.60;35.10
326;DHT22;150;52.352;14.058;2023-04-29T19:32:05;14.50;35.40
326;DHT22;150;52.352;14.058;2023-04-29T20:00:53;13.60;36.10
326;DHT22;150;52.352;14.058;2023-04-29T20:04:10;13.50;36.50
326;DHT22;150;52.352;14.058;2023-04-29T20:06:58;13.40;36.80
326;DHT22;150;52.352;14.058;2023-04-29T20:10:19;13.30;37.20
326;DHT22;150;52.352;14.058;2023-04-29T20:21:15;12.90;38.00
326;DHT22;150;52.352;14.058;2023-04-29T20:24:36;12.80;38.00
326;DHT22;150;52.352;14.058;2023-04-29T20:34:31;12.50;38.50
326;DHT22;150;52.352;14.058;2023-04-29T20:41:09;12.30;39.20
326;DHT22;150;52.352;14.058;2023-04-29T20:44:43;12.20;39.20
326;DHT22;150;52.352;14.058;2023-04-29T20:50:49;12.10;39.70
326;DHT22;150;52.352;14.058;2023-04-29T20:53:33;12.10;39.70
326;DHT22;150;52.352;14.058;2023-04-29T20:56:48;12.00;39.60
326;DHT22;150;52.352;14.058;2023-04-29T21:00:02;12.10;39.90
326;DHT22;150;52.352;14.058;2023-04-29T21:03:10;12.20;39.90
326;DHT22;150;52.352;14.058;2023-04-29T21:05:54;12.20;39.70
326;DHT22;150;52.352;14.058;2023-04-29T21:08:43;12.30;39.90
326;DHT22;150;52.352;14.058;2023-04-29T21:11:21;12.30;39.30
326;DHT22;150;52.352;14.058;2023-04-29T21:13:58;12.30;39.20
326;DHT22;150;52.352;14.058;2023-04-29T21:20:22;12.30;38.30
326;DHT22;150;52.352;14.058;2023-04-29T21:23:22;12.30;38.30
326;DHT22;150;52.352;14.058;2023-04-29T21:28:08;12.30;38.50
326;DHT22;150;52.352;14.058;2023-04-29T21:29:15;12.30;38.20
326;DHT22;150;52.352;14.058;2023-04-29T21:32:02;12.30;38.30
326;DHT22;150;52.352;14.058;2023-04-29T21:39:05;12.40;38.10
326;DHT22;150;52.352;14.058;2023-04-29T21:45:13;12.50;37.40
326;DHT22;150;52.352;14.058;2023-04-29T21:52:07;12.40;37.40
326;DHT22;150;52.352;14.058;2023-04-29T21:58:41;12.30;36.90
326;DHT22;150;52.352;14.058;2023-04-29T22:03:07;12.30;36.60
326;DHT22;150;52.352;14.058;2023-04-29T22:05:07;12.20;36.50
326;DHT22;150;52.352;14.058;2023-04-29T22:07:52;12.20;36.50
326;DHT22;150;52.352;14.058;2023-04-29T22:10:48;12.20;36.80
326;DHT22;150;52.352;14.058;2023-04-29T22:20:46;12.00;36.70
326;DHT22;150;52.352;14.058;2023-04-29T22:24:13;11.90;36.50
326;DHT22;150;52.352;14.058;2023-04-29T22:27:53;11.80;36.50
326;DHT22;150;52.352;14.058;2023-04-29T22:34:47;11.70;37.00
326;DHT22;150;52.352;14.058;2023-04-29T22:37:31;11.60;37.00
326;DHT22;150;52.352;14.058;2023-04-29T22:43:33;11.50;36.50
326;DHT22;150;52.352;14.058;2023-04-29T23:06:43;11.00;37.40
326;DHT22;150;52.352;14.058;2023-04-29T23:09:32;11.00;37.30
326;DHT22;150;52.352;14.058;2023-04-29T23:20:37;11.10;37.00
